createdAt,value
2022-09-15T00:01:11.084Z,63.80
2022-09-15T00:03:38.763Z,63.80
2022-09-15T00:06:06.848Z,63.90
2022-09-15T00:08:34.116Z,64.30
2022-09-15T00:11:11.322Z,64.30
2022-09-15T00:13:39.906Z,64.20
2022-09-15T00:16:08.262Z,64.00
2022-09-15T00:18:37.436Z,63.90
2022-09-15T00:21:10.227Z,64.00
2022-09-15T00:23:38.337Z,64.00
2022-09-15T00:26:14.876Z,64.10
2022-09-15T00:28:42.926Z,64.30
2022-09-15T00:31:12.744Z,64.50
2022-09-15T00:33:40.418Z,64.50
2022-09-15T00:36:10.978Z,64.70
2022-09-15T00:38:38.875Z,64.70
2022-09-15T00:41:07.490Z,64.90
2022-09-15T00:43:49.653Z,65.00
2022-09-15T00:46:19.242Z,65.30
2022-09-15T00:48:57.318Z,65.50
2022-09-15T00:51:44.781Z,65.70
2022-09-15T00:54:17.743Z,65.80
2022-09-15T00:56:48.044Z,65.90
2022-09-15T00:59:24.695Z,65.90
2022-09-15T01:02:04.527Z,66.10
2022-09-15T01:04:32.748Z,66.30
2022-09-15T01:07:05.658Z,66.50
2022-09-15T01:09:45.630Z,66.30
2022-09-15T01:12:13.320Z,66.40
2022-09-15T01:14:40.499Z,66.50
2022-09-15T01:17:07.620Z,66.50
2022-09-15T01:20:01.022Z,66.30
2022-09-15T01:22:31.014Z,66.00
2022-09-15T01:25:19.052Z,65.80
2022-09-15T01:28:05.288Z,65.60
2022-09-15T01:30:39.786Z,65.50
2022-09-15T01:33:31.910Z,65.50
2022-09-15T01:36:13.277Z,65.60
2022-09-15T01:38:53.093Z,65.80
2022-09-15T01:41:51.045Z,66.10
2022-09-15T01:44:32.373Z,66.50
2022-09-15T01:47:06.024Z,66.80
2022-09-15T01:49:47.826Z,67.20
2022-09-15T01:52:18.177Z,67.50
2022-09-15T01:54:49.227Z,67.60
2022-09-15T01:57:21.370Z,67.70
2022-09-15T01:59:50.456Z,67.90
2022-09-15T02:02:28.078Z,68.00
2022-09-15T02:05:06.504Z,67.80
2022-09-15T02:08:05.257Z,67.40
2022-09-15T02:10:43.385Z,67.10
2022-09-15T02:13:19.072Z,66.70
2022-09-15T02:15:53.978Z,66.60
2022-09-15T02:18:34.726Z,66.30
2022-09-15T02:21:15.175Z,66.00
2022-09-15T02:23:48.674Z,65.70
2022-09-15T02:26:20.096Z,65.70
2022-09-15T02:28:49.413Z,65.70
2022-09-15T02:31:18.838Z,65.80
2022-09-15T02:33:51.437Z,66.00
2022-09-15T02:36:21.019Z,66.20
2022-09-15T02:38:54.361Z,66.60
2022-09-15T02:41:21.583Z,66.70
2022-09-15T02:43:49.546Z,66.80
2022-09-15T02:46:20.133Z,66.60
2022-09-15T02:48:47.750Z,66.50
2022-09-15T02:51:16.962Z,66.20
2022-09-15T02:53:45.710Z,66.10
2022-09-15T02:56:13.349Z,66.00
2022-09-15T02:58:40.709Z,66.00
2022-09-15T03:01:10.295Z,65.60
2022-09-15T03:03:42.284Z,64.90
2022-09-15T03:06:16.763Z,64.20
2022-09-15T03:08:54.507Z,63.30
2022-09-15T03:11:23.861Z,62.80
2022-09-15T03:13:56.321Z,62.50
2022-09-15T03:16:25.487Z,62.40
2022-09-15T03:18:55.799Z,62.60
2022-09-15T03:21:23.311Z,62.50
2022-09-15T03:23:50.609Z,62.30
2022-09-15T03:26:18.126Z,62.30
2022-09-15T03:28:45.998Z,62.30
2022-09-15T03:31:13.470Z,62.50
2022-09-15T03:33:40.763Z,62.80
2022-09-15T03:36:09.129Z,62.70
2022-09-15T03:38:36.395Z,62.80
2022-09-15T03:41:07.860Z,62.80
2022-09-15T03:43:36.534Z,62.70
2022-09-15T03:46:05.899Z,62.80
2022-09-15T03:48:35.634Z,62.80
2022-09-15T03:51:06.025Z,62.70
2022-09-15T03:53:34.468Z,62.90
2022-09-15T03:56:26.235Z,63.10
2022-09-15T03:58:54.265Z,63.30
2022-09-15T04:01:21.673Z,63.60
2022-09-15T04:03:51.070Z,63.60
2022-09-15T04:06:21.003Z,63.80
2022-09-15T04:08:49.107Z,63.90
2022-09-15T04:11:18.080Z,64.10
2022-09-15T04:13:47.121Z,64.40
2022-09-15T04:16:17.652Z,64.50
2022-09-15T04:18:45.662Z,64.60
2022-09-15T04:21:15.293Z,64.20
2022-09-15T04:23:43.756Z,63.90
2022-09-15T04:26:20.034Z,63.30
2022-09-15T04:28:47.247Z,62.30
2022-09-15T04:31:16.274Z,61.90
2022-09-15T04:33:44.897Z,61.50
2022-09-15T04:36:15.343Z,61.40
2022-09-15T04:38:43.029Z,61.60
2022-09-15T04:41:10.514Z,62.00
2022-09-15T04:43:38.060Z,62.20
2022-09-15T04:46:05.527Z,62.90
2022-09-15T04:48:32.897Z,63.50
2022-09-15T04:51:05.440Z,63.80
2022-09-15T04:53:33.254Z,64.20
2022-09-15T04:56:11.976Z,64.20
2022-09-15T04:58:41.672Z,64.30
2022-09-15T05:01:14.677Z,63.90
2022-09-15T05:03:42.717Z,64.00
2022-09-15T05:06:13.223Z,63.90
2022-09-15T05:08:40.887Z,64.00
2022-09-15T05:11:11.311Z,64.20
2022-09-15T05:13:40.343Z,64.70
2022-09-15T05:16:18.645Z,65.00
2022-09-15T05:18:47.923Z,64.80
2022-09-15T05:21:16.979Z,64.50
2022-09-15T05:23:44.687Z,64.10
2022-09-15T05:26:13.752Z,63.70
2022-09-15T05:28:41.788Z,63.00
2022-09-15T05:31:14.228Z,62.50
2022-09-15T05:33:41.549Z,62.00
2022-09-15T05:36:08.940Z,61.60
2022-09-15T05:38:36.128Z,61.30
2022-09-15T05:41:08.614Z,61.80
2022-09-15T05:43:37.264Z,61.90
2022-09-15T05:46:04.633Z,62.20
2022-09-15T05:48:32.606Z,62.00
2022-09-15T05:50:59.915Z,62.10
2022-09-15T05:53:27.721Z,62.60
2022-09-15T05:56:00.116Z,63.40
2022-09-15T05:58:27.953Z,63.60
2022-09-15T06:00:55.754Z,63.00
2022-09-15T06:03:28.694Z,61.90
2022-09-15T06:06:02.287Z,61.50
2022-09-15T06:08:41.407Z,61.10
2022-09-15T06:11:13.254Z,60.90
2022-09-15T06:13:40.841Z,61.10
2022-09-15T06:16:11.257Z,61.70
2022-09-15T06:18:39.552Z,61.90
2022-09-15T06:21:12.757Z,62.10
2022-09-15T06:23:40.625Z,62.00
2022-09-15T06:26:16.906Z,62.00
2022-09-15T06:28:52.168Z,62.00
2022-09-15T06:31:21.278Z,61.40
2022-09-15T06:33:54.104Z,61.10
2022-09-15T06:36:23.062Z,59.90
2022-09-15T06:38:51.703Z,59.50
2022-09-15T06:41:19.166Z,58.80
2022-09-15T06:43:49.233Z,58.00
2022-09-15T06:46:25.288Z,57.30
2022-09-15T06:48:54.011Z,56.70
2022-09-15T06:51:23.633Z,55.40
2022-09-15T06:53:51.288Z,54.60
2022-09-15T06:56:21.503Z,53.50
2022-09-15T06:58:50.443Z,53.50
2022-09-15T07:01:25.961Z,53.30
2022-09-15T07:03:53.823Z,52.50
2022-09-15T07:06:22.475Z,52.40
2022-09-15T07:08:50.960Z,51.80
2022-09-15T07:11:18.754Z,50.90
2022-09-15T07:13:48.300Z,51.00
2022-09-15T07:16:15.762Z,50.80
2022-09-15T07:18:43.674Z,50.80
2022-09-15T07:21:16.696Z,51.00
2022-09-15T07:23:45.174Z,50.70
2022-09-15T07:26:13.506Z,51.10
2022-09-15T07:28:42.552Z,51.30
2022-09-15T07:31:12.690Z,51.60
2022-09-15T07:33:40.181Z,51.30
2022-09-15T07:36:10.198Z,51.40
2022-09-15T07:38:41.807Z,51.00
2022-09-15T07:41:11.899Z,50.80
2022-09-15T07:43:39.616Z,50.90
2022-09-15T07:46:07.500Z,50.90
2022-09-15T07:48:34.903Z,50.90
2022-09-15T07:51:03.016Z,50.80
2022-09-15T07:53:30.988Z,51.20
2022-09-15T07:55:58.349Z,51.10
2022-09-15T07:58:25.903Z,50.80
2022-09-15T08:00:53.072Z,51.10
2022-09-15T08:03:20.329Z,51.20
2022-09-15T08:05:47.627Z,51.00
2022-09-15T08:08:14.874Z,50.70
2022-09-15T08:10:42.803Z,50.90
2022-09-15T08:13:09.884Z,50.90
2022-09-15T08:15:38.093Z,51.10
2022-09-15T08:18:06.407Z,51.20
2022-09-15T08:20:33.706Z,50.90
2022-09-15T08:23:00.929Z,50.80
2022-09-15T08:25:28.050Z,50.70
2022-09-15T08:27:56.552Z,50.30
2022-09-15T08:30:23.824Z,50.20
2022-09-15T08:32:54.056Z,50.00
2022-09-15T08:35:21.255Z,49.40
2022-09-15T08:37:48.378Z,48.70
2022-09-15T08:40:21.149Z,48.00
2022-09-15T08:42:52.015Z,47.80
2022-09-15T08:45:26.183Z,46.60
2022-09-15T08:47:59.991Z,46.60
2022-09-15T08:50:31.223Z,45.60
2022-09-15T08:53:09.895Z,45.00
2022-09-15T08:55:58.526Z,44.20
2022-09-15T08:58:38.244Z,43.50
2022-09-15T09:01:08.903Z,43.00
2022-09-15T09:03:40.735Z,43.00
2022-09-15T09:06:43.098Z,42.20
2022-09-15T09:09:35.415Z,42.60
2022-09-15T09:12:26.698Z,41.70
2022-09-15T09:15:26.005Z,41.40
2022-09-15T09:18:20.786Z,40.30
2022-09-15T09:21:12.289Z,40.40
2022-09-15T09:23:59.927Z,40.00
2022-09-15T09:26:29.078Z,39.70
2022-09-15T09:28:59.855Z,39.10
2022-09-15T09:31:29.005Z,37.90
2022-09-15T09:34:17.793Z,37.20
2022-09-15T09:36:45.088Z,37.20
2022-09-15T09:39:15.224Z,37.10
2022-09-15T09:41:42.750Z,36.80
2022-09-15T09:44:15.103Z,36.30
2022-09-15T09:46:43.501Z,35.10
2022-09-15T09:49:29.682Z,35.10
2022-09-15T09:52:03.570Z,34.80
2022-09-15T09:54:33.225Z,34.60
2022-09-15T09:57:27.745Z,34.80
2022-09-15T09:59:55.742Z,34.40
2022-09-15T10:02:29.534Z,34.90
2022-09-15T10:05:06.945Z,34.60
2022-09-15T10:07:40.220Z,34.00
2022-09-15T10:10:18.406Z,33.80
2022-09-15T10:12:45.901Z,33.70
2022-09-15T10:15:25.831Z,34.30
2022-09-15T10:17:55.507Z,34.50
2022-09-15T10:20:50.291Z,34.40
2022-09-15T10:23:17.791Z,32.80
2022-09-15T10:26:01.057Z,34.70
2022-09-15T10:28:29.317Z,34.40
2022-09-15T10:31:00.943Z,34.80
2022-09-15T10:33:31.491Z,35.00
2022-09-15T10:36:05.986Z,34.70
2022-09-15T10:38:49.185Z,34.50
2022-09-15T10:41:28.945Z,35.20
2022-09-15T10:44:23.159Z,33.60
2022-09-15T10:47:06.734Z,33.50
2022-09-15T10:49:58.831Z,35.70
2022-09-15T10:52:49.279Z,40.10
2022-09-15T10:55:16.434Z,39.90
2022-09-15T10:57:46.647Z,40.10
2022-09-15T11:00:22.540Z,39.70
2022-09-15T11:03:11.126Z,38.30
2022-09-15T11:06:13.572Z,37.80
2022-09-15T11:09:13.785Z,36.70
2022-09-15T11:12:07.472Z,37.20
2022-09-15T11:14:57.996Z,38.00
2022-09-15T11:18:00.251Z,37.80
2022-09-15T11:20:56.348Z,36.00
2022-09-15T11:23:47.537Z,36.10
2022-09-15T11:26:59.426Z,35.80
2022-09-15T11:29:35.235Z,35.30
2022-09-15T11:32:17.968Z,35.20
2022-09-15T11:35:02.819Z,36.20
2022-09-15T11:37:40.264Z,35.50
2022-09-15T11:40:13.401Z,34.90
2022-09-15T11:43:06.214Z,35.20
2022-09-15T11:45:40.817Z,36.50
2022-09-15T11:48:25.895Z,37.20
2022-09-15T11:50:55.950Z,39.00
2022-09-15T11:54:03.185Z,39.00
2022-09-15T11:56:36.814Z,39.20
2022-09-15T11:59:31.028Z,39.50
2022-09-15T12:02:24.656Z,39.30
2022-09-15T12:05:12.486Z,40.80
2022-09-15T12:08:00.814Z,41.70
2022-09-15T12:10:38.362Z,42.40
2022-09-15T12:13:06.506Z,41.00
2022-09-15T12:15:34.024Z,42.50
2022-09-15T12:18:10.869Z,43.10
2022-09-15T12:21:09.907Z,42.80
2022-09-15T12:23:56.645Z,43.50
2022-09-15T12:26:26.549Z,43.00
2022-09-15T12:28:58.247Z,42.00
2022-09-15T12:31:27.600Z,40.70
2022-09-15T12:33:56.086Z,39.40
2022-09-15T12:36:44.718Z,38.00
2022-09-15T12:39:29.857Z,39.10
2022-09-15T12:42:31.567Z,40.00
2022-09-15T12:45:00.259Z,39.50
2022-09-15T12:47:31.912Z,39.90
2022-09-15T12:50:21.447Z,40.20
2022-09-15T12:52:56.176Z,39.80
2022-09-15T12:55:48.735Z,38.90
2022-09-15T12:58:27.892Z,40.10
2022-09-15T13:01:26.567Z,41.10
2022-09-15T13:03:55.334Z,39.80
2022-09-15T13:06:31.298Z,38.60
2022-09-15T13:09:07.565Z,38.00
2022-09-15T13:11:36.993Z,36.50
2022-09-15T13:14:04.661Z,36.30
2022-09-15T13:16:34.096Z,36.50
2022-09-15T13:19:08.012Z,36.50
2022-09-15T13:21:43.793Z,37.10
2022-09-15T13:24:20.485Z,38.60
2022-09-15T13:26:55.667Z,38.60
2022-09-15T13:29:24.995Z,39.00
2022-09-15T13:32:18.058Z,39.40
2022-09-15T13:35:16.525Z,40.70
2022-09-15T13:38:13.537Z,41.30
2022-09-15T13:41:34.420Z,40.90
2022-09-15T13:44:20.713Z,41.80
2022-09-15T13:46:59.914Z,41.80
2022-09-15T13:49:38.827Z,43.60
2022-09-15T13:52:33.678Z,44.50
2022-09-15T13:55:28.105Z,45.50
2022-09-15T14:01:00.308Z,46.70
2022-09-15T14:04:01.058Z,46.70
2022-09-15T14:06:33.915Z,47.10
2022-09-15T14:09:23.021Z,47.50
2022-09-15T14:11:54.036Z,47.60
2022-09-15T14:14:34.371Z,46.80
2022-09-15T14:17:03.242Z,44.90
2022-09-15T14:19:39.011Z,45.20
2022-09-15T14:22:35.873Z,45.10
2022-09-15T14:25:15.188Z,45.60
2022-09-15T14:27:47.611Z,45.70
2022-09-15T14:30:24.953Z,45.30
2022-09-15T14:33:00.701Z,45.40
2022-09-15T14:35:35.849Z,45.20
2022-09-15T14:38:03.402Z,45.60
2022-09-15T14:40:36.984Z,45.40
2022-09-15T14:43:26.249Z,46.10
2022-09-15T14:46:01.491Z,46.40
2022-09-15T14:48:34.424Z,46.30
2022-09-15T14:51:07.335Z,45.70
2022-09-15T14:53:54.225Z,44.90
2022-09-15T14:56:44.358Z,44.50
2022-09-15T14:59:31.622Z,44.30
2022-09-15T15:02:23.103Z,43.20
2022-09-15T15:08:16.141Z,42.30
2022-09-15T15:10:45.811Z,41.90
2022-09-15T15:13:17.667Z,42.80
2022-09-15T15:15:49.644Z,43.60
2022-09-15T15:18:40.482Z,44.60
2022-09-15T15:21:27.954Z,43.50
2022-09-15T15:23:55.560Z,43.40
2022-09-15T15:26:38.445Z,45.10
2022-09-15T15:29:43.289Z,45.40
2022-09-15T15:32:48.612Z,45.90
2022-09-15T15:35:20.286Z,46.30
2022-09-15T15:37:48.460Z,47.10
2022-09-15T15:40:23.355Z,47.00
2022-09-15T15:46:03.260Z,46.90
2022-09-15T15:48:38.592Z,46.80
2022-09-15T15:51:07.844Z,45.10
2022-09-15T15:53:36.357Z,45.70
2022-09-15T15:56:03.613Z,44.50
2022-09-15T15:58:31.467Z,44.70
2022-09-15T16:00:58.681Z,43.40
2022-09-15T16:03:26.175Z,43.60
2022-09-15T16:05:57.114Z,44.10
2022-09-15T16:08:29.635Z,44.50
2022-09-15T16:10:58.009Z,44.50
2022-09-15T16:13:25.942Z,44.60
2022-09-15T16:15:54.434Z,43.00
2022-09-15T16:18:21.840Z,43.60
2022-09-15T16:20:50.419Z,43.60
2022-09-15T16:23:19.630Z,43.30
2022-09-15T16:26:03.663Z,43.40
2022-09-15T16:28:31.823Z,43.00
2022-09-15T16:30:59.432Z,43.40
2022-09-15T16:33:26.961Z,43.00
2022-09-15T16:35:55.290Z,42.50
2022-09-15T16:38:25.939Z,42.30
2022-09-15T16:40:53.302Z,42.80
2022-09-15T16:43:22.006Z,43.30
2022-09-15T16:45:50.674Z,43.30
2022-09-15T16:48:18.411Z,43.20
2022-09-15T16:51:09.191Z,43.00
2022-09-15T16:53:38.560Z,43.20
2022-09-15T16:56:07.891Z,43.30
2022-09-15T16:58:35.073Z,43.60
2022-09-15T17:01:03.553Z,43.90
2022-09-15T17:03:31.273Z,43.60
2022-09-15T17:06:00.522Z,43.50
2022-09-15T17:08:29.803Z,43.50
2022-09-15T17:10:59.655Z,43.00
2022-09-15T17:13:30.524Z,43.40
2022-09-15T17:15:59.005Z,43.90
2022-09-15T17:18:27.274Z,43.60
2022-09-15T17:20:54.727Z,44.00
2022-09-15T17:23:25.372Z,43.80
2022-09-15T17:25:57.412Z,43.80
2022-09-15T17:28:27.701Z,44.10
2022-09-15T17:31:00.367Z,44.30
2022-09-15T17:33:29.305Z,47.50
2022-09-15T17:35:56.845Z,49.30
2022-09-15T17:38:25.086Z,52.70
2022-09-15T17:40:55.354Z,53.70
2022-09-15T17:43:25.366Z,53.50
2022-09-15T17:45:53.937Z,54.20
2022-09-15T17:48:22.642Z,54.60
2022-09-15T17:50:50.461Z,54.90
2022-09-15T17:53:21.458Z,55.10
2022-09-15T17:55:50.131Z,55.30
2022-09-15T17:58:17.717Z,55.50
2022-09-15T18:00:45.995Z,55.50
2022-09-15T18:03:16.183Z,56.20
2022-09-15T18:05:43.476Z,56.30
2022-09-15T18:08:10.950Z,56.60
2022-09-15T18:10:38.170Z,57.10
2022-09-15T18:13:07.139Z,57.50
2022-09-15T18:15:40.232Z,57.80
2022-09-15T18:18:10.963Z,57.90
2022-09-15T18:20:39.660Z,58.20
2022-09-15T18:23:06.890Z,58.50
2022-09-15T18:25:37.432Z,58.70
2022-09-15T18:28:06.521Z,58.70
2022-09-15T18:30:38.658Z,59.00
2022-09-15T18:33:06.326Z,59.40
2022-09-15T18:35:33.883Z,59.60
2022-09-15T18:38:01.917Z,59.80
2022-09-15T18:40:29.196Z,59.90
2022-09-15T18:42:59.471Z,60.10
2022-09-15T18:45:27.007Z,60.30
2022-09-15T18:47:58.422Z,60.50
2022-09-15T18:50:26.697Z,60.30
2022-09-15T18:52:55.123Z,60.50
2022-09-15T18:55:23.379Z,60.70
2022-09-15T18:57:50.990Z,60.80
2022-09-15T19:00:22.714Z,60.90
2022-09-15T19:02:55.579Z,60.80
2022-09-15T19:05:22.835Z,60.90
2022-09-15T19:07:50.112Z,60.80
2022-09-15T19:10:18.575Z,60.90
2022-09-15T19:12:45.897Z,60.80
2022-09-15T19:15:14.156Z,60.40
2022-09-15T19:17:42.807Z,61.00
2022-09-15T19:20:12.634Z,61.20
2022-09-15T19:22:41.089Z,61.30
2022-09-15T19:25:10.289Z,61.30
2022-09-15T19:27:38.686Z,61.60
2022-09-15T19:30:10.214Z,61.90
2022-09-15T19:32:39.220Z,61.90
2022-09-15T19:35:07.304Z,61.90
2022-09-15T19:37:37.509Z,61.90
2022-09-15T19:40:09.151Z,62.20
2022-09-15T19:42:38.318Z,62.40
2022-09-15T19:45:06.473Z,62.40
2022-09-15T19:47:34.289Z,62.50
2022-09-15T19:50:01.873Z,62.50
2022-09-15T19:52:29.440Z,62.30
2022-09-15T19:54:56.527Z,62.70
2022-09-15T19:57:24.134Z,63.00
2022-09-15T19:59:51.310Z,63.00
2022-09-15T20:02:18.785Z,63.00
2022-09-15T20:07:31.747Z,63.00
2022-09-15T20:09:58.896Z,62.80
2022-09-15T20:12:26.895Z,62.90
2022-09-15T20:14:54.385Z,63.20
2022-09-15T20:17:21.525Z,62.90
2022-09-15T20:19:48.959Z,63.10
2022-09-15T20:22:16.144Z,63.20
2022-09-15T20:24:43.496Z,63.20
2022-09-15T20:27:10.627Z,63.20
2022-09-15T20:29:38.872Z,63.30
2022-09-15T20:32:06.192Z,63.10
2022-09-15T20:34:33.316Z,63.60
2022-09-15T20:37:00.668Z,63.80
2022-09-15T20:39:27.872Z,64.10
2022-09-15T20:41:54.924Z,64.20
2022-09-15T20:44:22.132Z,64.60
2022-09-15T20:46:49.263Z,64.70
2022-09-15T20:49:16.763Z,64.80
2022-09-15T20:51:43.919Z,64.80
2022-09-15T20:54:11.397Z,65.10
2022-09-15T20:56:38.679Z,65.40
2022-09-15T20:59:10.247Z,65.70
2022-09-15T21:01:39.190Z,65.90
2022-09-15T21:04:10.905Z,66.20
2022-09-15T21:06:39.036Z,66.30
2022-09-15T21:09:07.120Z,66.40
2022-09-15T21:11:34.583Z,66.30
2022-09-15T21:14:02.603Z,66.30
2022-09-15T21:16:29.819Z,66.30
2022-09-15T21:18:58.254Z,66.30
2022-09-15T21:21:30.948Z,66.50
2022-09-15T21:24:07.056Z,66.70
2022-09-15T21:26:59.467Z,66.90
2022-09-15T21:29:28.859Z,66.90
2022-09-15T21:31:56.183Z,67.00
2022-09-15T21:34:24.141Z,66.80
2022-09-15T21:36:53.794Z,66.90
2022-09-15T21:39:21.448Z,66.70
2022-09-15T21:41:48.614Z,66.70
2022-09-15T21:44:16.011Z,66.80
2022-09-15T21:46:44.962Z,66.70
2022-09-15T21:49:12.082Z,66.60
2022-09-15T21:51:40.043Z,66.80
2022-09-15T21:54:07.212Z,66.70
2022-09-15T21:56:34.504Z,66.70
2022-09-15T21:59:03.725Z,66.70
2022-09-15T22:01:32.849Z,66.90
2022-09-15T22:04:02.755Z,66.90
2022-09-15T22:06:34.414Z,67.10
2022-09-15T22:09:04.312Z,67.30
2022-09-15T22:11:31.707Z,67.30
2022-09-15T22:13:59.232Z,67.50
2022-09-15T22:16:26.917Z,67.60
2022-09-15T22:18:54.423Z,67.80
2022-09-15T22:21:24.463Z,67.80
2022-09-15T22:23:53.975Z,68.00
2022-09-15T22:26:25.375Z,68.20
2022-09-15T22:28:53.464Z,68.10
2022-09-15T22:31:22.000Z,68.20
2022-09-15T22:33:49.576Z,68.40
2022-09-15T22:36:20.012Z,68.40
2022-09-15T22:38:47.508Z,68.60
2022-09-15T22:41:18.372Z,68.80
2022-09-15T22:43:49.105Z,68.80
2022-09-15T22:46:18.115Z,69.00
2022-09-15T22:48:45.281Z,69.10
2022-09-15T22:51:14.701Z,69.20
2022-09-15T22:53:42.472Z,69.20
2022-09-15T22:56:23.403Z,69.30
2022-09-15T22:58:50.852Z,69.40
2022-09-15T23:01:20.808Z,69.50
2022-09-15T23:03:53.253Z,69.50
2022-09-15T23:06:21.567Z,69.60
2022-09-15T23:08:57.340Z,69.50
2022-09-15T23:11:26.172Z,69.60
2022-09-15T23:13:54.061Z,69.70
2022-09-15T23:16:22.458Z,69.80
2022-09-15T23:18:50.625Z,69.80
2022-09-15T23:21:18.123Z,69.90
2022-09-15T23:23:49.092Z,69.90
2022-09-15T23:26:18.674Z,69.80
2022-09-15T23:28:45.935Z,69.60
2022-09-15T23:31:13.931Z,69.80
2022-09-15T23:33:41.592Z,69.90
2022-09-15T23:36:11.922Z,70.10
2022-09-15T23:38:41.052Z,70.20
2022-09-15T23:41:09.382Z,70.40
2022-09-15T23:43:36.508Z,70.60
2022-09-15T23:46:04.187Z,70.70
2022-09-15T23:48:34.612Z,71.00
2022-09-15T23:51:02.076Z,71.20
2022-09-15T23:53:29.715Z,71.60
2022-09-15T23:55:57.046Z,71.70
2022-09-15T23:58:24.869Z,71.80
